Cerepovec, Russia
Current Conditions -  °F | °C
As of 10:00 PM on Thursday 23 Oct 2014 (Local Time) from ULWC Reporting Station
Clear Clear  
Wind Chill: 21°   Ceiling: Unl
Heat Index: 28°   Visibility: 6mi
Dew Point: 21°   Wind: 7mph
Humidity: 74%   Direction: 330°NNW
Pressure: 30.39"   Gusts: 13mph
Location:  59.13°N, 37.88°E
Report Text: ULWC 231900Z 33003G06MPS CAVOK M02/M06 Q1029 NOSIG RMKQFE762/1016 SC050
Loading
Personal Weather Stations






























Interactive Weather Map
Tropical Storm Tracking
New forecast layout! Learn more

10-Day Weather Forecast

Advertisements
Track Severe Weather on mobile